Time;durP1;ratioP1;P1;durP2;ratioP2;P2;SDS_P1;SDS_P2;PMS_P1;PMS_P2;Temp;Humidity;BMP_temperature;BMP_pressure;BME280_temperature;BME280_humidity;BME280_pressure;Samples;Min_cycle;Max_cycle;Signal;HPM_P1;HPM_P2
2024/03/25 00:01:05;;;;;;;3.57;1.90;;;;;;;5.53;100.00;97422.09;5071046;28;20227;-77
2024/03/25 00:03:30;;;;;;;2.37;1.90;;;;;;;5.52;100.00;97416.03;5071198;28;20203;-77
2024/03/25 00:05:58;;;;;;;3.33;1.90;;;;;;;5.52;100.00;97410.78;5070925;28;20200;-77
2024/03/25 00:08:23;;;;;;;3.90;2.10;;;;;;;5.50;100.00;97412.63;5071035;28;20215;-77
2024/03/25 00:10:50;;;;;;;4.73;2.30;;;;;;;5.49;100.00;97418.81;5070636;28;20234;-77
2024/03/25 00:13:15;;;;;;;4.40;2.17;;;;;;;5.48;100.00;97408.44;5070728;28;20677;-77
2024/03/25 00:15:43;;;;;;;2.50;2.10;;;;;;;5.45;100.00;97414.69;5070973;28;20237;-77
2024/03/25 00:18:11;;;;;;;2.97;2.03;;;;;;;5.46;100.00;97405.91;5071078;28;20237;-77
2024/03/25 00:20:37;;;;;;;4.23;2.07;;;;;;;5.45;100.00;97408.63;5071381;28;20285;-77
2024/03/25 00:23:03;;;;;;;2.70;1.83;;;;;;;5.45;100.00;97404.22;5074546;28;20211;-77
2024/03/25 00:25:30;;;;;;;3.13;1.93;;;;;;;5.48;100.00;97409.28;5074329;28;20218;-77
2024/03/25 00:27:56;;;;;;;3.17;2.20;;;;;;;5.50;100.00;97406.56;5074397;28;20208;-79
2024/03/25 00:30:24;;;;;;;3.17;1.63;;;;;;;5.52;100.00;97404.69;5074367;28;20751;-77
2024/03/25 00:32:50;;;;;;;3.00;1.93;;;;;;;5.50;100.00;97390.84;5074322;28;20207;-77
2024/03/25 00:35:17;;;;;;;3.50;2.30;;;;;;;5.55;100.00;97389.63;5074311;28;20322;-77
2024/03/25 00:37:44;;;;;;;3.63;1.93;;;;;;;5.49;100.00;97395.25;5074193;28;20281;-77
2024/03/25 00:40:12;;;;;;;4.00;1.90;;;;;;;5.45;100.00;97398.16;5074072;28;20732;-77
2024/03/25 00:42:37;;;;;;;3.20;2.03;;;;;;;5.41;100.00;97396.63;5074086;28;20211;-77
2024/03/25 00:45:05;;;;;;;4.27;2.10;;;;;;;5.35;100.00;97397.84;5074708;28;20294;-77
2024/03/25 00:47:31;;;;;;;2.10;1.90;;;;;;;5.30;100.00;97399.91;5074751;28;20215;-77
2024/03/25 00:49:59;;;;;;;2.33;1.93;;;;;;;5.28;100.00;97407.03;5074123;28;20227;-77
2024/03/25 00:52:24;;;;;;;3.20;1.83;;;;;;;5.26;100.00;97408.88;5073691;28;20235;-77
2024/03/25 00:54:51;;;;;;;7.53;2.20;;;;;;;5.27;100.00;97405.34;5073779;28;20211;-77
2024/03/25 00:57:16;;;;;;;2.70;2.10;;;;;;;5.26;100.00;97400.19;5074011;28;20227;-77
2024/03/25 00:59:43;;;;;;;3.47;2.30;;;;;;;5.26;100.00;97408.88;5073744;28;20207;-77
2024/03/25 01:02:08;;;;;;;4.03;1.90;;;;;;;5.28;100.00;97407.03;5073548;28;20234;-77
2024/03/25 01:04:35;;;;;;;4.90;2.40;;;;;;;5.32;100.00;97413.75;5073856;28;20582;-77
2024/03/25 01:07:03;;;;;;;4.33;2.30;;;;;;;5.28;100.00;97403.53;5074133;28;20210;-77
2024/03/25 01:09:29;;;;;;;4.87;2.47;;;;;;;5.19;100.00;97402.31;5073522;28;20207;-78
2024/03/25 01:11:55;;;;;;;3.67;1.97;;;;;;;5.20;100.00;97406.63;5073660;28;20232;-77
2024/03/25 01:14:22;;;;;;;2.67;2.20;;;;;;;5.20;100.00;97398.75;5066397;28;20203;-77
2024/03/25 01:16:50;;;;;;;3.40;2.20;;;;;;;5.17;100.00;97387.63;5061516;28;20224;-77
2024/03/25 01:19:16;;;;;;;2.87;1.43;;;;;;;5.13;100.00;97391.38;5053342;28;20207;-77
2024/03/25 01:21:42;;;;;;;2.57;1.83;;;;;;;5.13;100.00;97384.34;5052964;28;20235;-77
2024/03/25 01:24:10;;;;;;;3.80;1.93;;;;;;;5.07;100.00;97386.50;5051470;28;20232;-77
2024/03/25 01:26:36;;;;;;;2.07;1.80;;;;;;;5.04;100.00;97392.75;5053236;28;20205;-77
2024/03/25 01:29:02;;;;;;;2.13;1.73;;;;;;;5.08;100.00;97394.25;5052981;28;20213;-77
2024/03/25 01:31:28;;;;;;;2.40;2.00;;;;;;;5.07;100.00;97387.31;5052535;28;20235;-77
2024/03/25 01:33:55;;;;;;;4.13;1.70;;;;;;;5.07;100.00;97384.72;5053134;28;20210;-77
2024/03/25 01:36:20;;;;;;;3.00;2.00;;;;;;;5.05;100.00;97390.97;5052872;28;20551;-77
2024/03/25 01:38:47;;;;;;;4.13;2.30;;;;;;;5.01;100.00;97381.63;5052974;28;20262;-76
2024/03/25 01:41:22;;;;;;;6.00;2.00;;;;;;;5.05;100.00;97383.97;5052873;28;20600;-77
2024/03/25 01:43:49;;;;;;;3.57;2.17;;;;;;;5.05;100.00;97383.09;5053094;28;20278;-76
2024/03/25 01:46:15;;;;;;;3.23;2.30;;;;;;;5.06;100.00;97385.66;5052993;28;20207;-76
2024/03/25 01:48:42;;;;;;;2.93;2.00;;;;;;;5.05;100.00;97389.19;5052891;28;20208;-76
2024/03/25 01:51:08;;;;;;;2.80;2.00;;;;;;;5.12;100.00;97390.53;5052446;28;20235;-76
2024/03/25 01:53:35;;;;;;;2.97;2.20;;;;;;;5.10;100.00;97387.16;5053018;28;20208;-77
2024/03/25 01:56:02;;;;;;;2.60;1.97;;;;;;;5.11;100.00;97399.31;5052605;28;20228;-76
2024/03/25 01:58:31;;;;;;;7.07;2.17;;;;;;;5.09;100.00;97403.81;5052659;28;20204;-76
2024/03/25 02:00:59;;;;;;;3.70;2.07;;;;;;;5.06;100.00;97406.59;5052271;28;20255;-76
2024/03/25 02:03:26;;;;;;;4.70;2.20;;;;;;;5.03;100.00;97404.16;5052636;28;20207;-76
2024/03/25 02:06:01;;;;;;;3.53;1.90;;;;;;;5.02;100.00;97397.22;5052607;28;20574;-77
2024/03/25 02:08:28;;;;;;;3.60;1.90;;;;;;;5.02;100.00;97397.22;5052751;28;20222;-76
2024/03/25 02:10:54;;;;;;;2.93;2.03;;;;;;;5.00;100.00;97401.72;5052262;28;20231;-77
2024/03/25 02:13:22;;;;;;;4.90;2.47;;;;;;;4.97;100.00;97395.81;5052432;28;20281;-76
2024/03/25 02:15:51;;;;;;;3.30;2.20;;;;;;;5.02;100.00;97394.59;5052242;28;20254;-76
2024/03/25 02:18:17;;;;;;;3.80;1.93;;;;;;;4.99;100.00;97396.56;5052285;28;20236;-76
2024/03/25 02:20:43;;;;;;;3.60;2.00;;;;;;;4.91;100.00;97397.03;5051907;28;20227;-76
2024/03/25 02:23:10;;;;;;;2.97;1.93;;;;;;;4.93;100.00;97395.16;5052433;28;20584;-76
2024/03/25 02:25:38;;;;;;;2.63;2.10;;;;;;;4.85;100.00;97394.78;5052274;28;20219;-76
2024/03/25 02:28:06;;;;;;;3.80;2.40;;;;;;;4.85;100.00;97397.38;5052214;28;20263;-76
2024/03/25 02:30:32;;;;;;;4.53;2.20;;;;;;;4.84;100.00;97395.69;5051801;28;20732;-76
2024/03/25 02:32:58;;;;;;;4.73;2.30;;;;;;;4.82;100.00;97392.31;5051791;28;20214;-76
2024/03/25 02:35:26;;;;;;;5.13;2.73;;;;;;;4.81;100.00;97400.25;5052289;28;20609;-78
2024/03/25 02:37:54;;;;;;;5.67;2.40;;;;;;;4.90;100.00;97399.72;5052091;28;20229;-76
2024/03/25 02:40:21;;;;;;;2.70;2.00;;;;;;;4.89;100.00;97393.63;5052045;28;20217;-78
2024/03/25 02:42:48;;;;;;;2.77;2.00;;;;;;;4.88;100.00;97405.06;5051602;28;20214;-76
2024/03/25 02:45:15;;;;;;;4.67;2.27;;;;;;;4.97;100.00;97398.44;5051468;28;20234;-76
2024/03/25 02:47:41;;;;;;;5.30;2.20;;;;;;;4.94;100.00;97396.00;5051903;28;20278;-76
2024/03/25 02:50:08;;;;;;;5.23;2.30;;;;;;;4.95;100.00;97390.66;5051861;28;20208;-76
2024/03/25 02:52:34;;;;;;;3.70;2.23;;;;;;;4.95;100.00;97398.53;5051752;28;20270;-77
2024/03/25 02:55:00;;;;;;;4.73;2.50;;;;;;;4.91;100.00;97397.03;5051616;28;20720;-76
2024/03/25 02:57:26;;;;;;;2.87;1.93;;;;;;;4.92;100.00;97401.34;5051929;28;20232;-76
2024/03/25 02:59:52;;;;;;;3.17;2.10;;;;;;;4.86;100.00;97396.44;5051560;28;20311;-76
2024/03/25 03:02:19;;;;;;;2.67;2.20;;;;;;;4.88;100.00;97391.97;5051757;28;20232;-78
2024/03/25 03:04:45;;;;;;;2.73;2.23;;;;;;;4.88;100.00;97396.38;5051768;28;20211;-76
2024/03/25 03:07:12;;;;;;;3.23;2.20;;;;;;;4.91;100.00;97383.09;5051512;28;20702;-76
2024/03/25 03:09:37;;;;;;;5.13;2.50;;;;;;;4.86;100.00;97388.59;5051957;28;20212;-78
2024/03/25 03:12:04;;;;;;;4.90;2.70;;;;;;;4.86;100.00;97392.97;5051205;28;20730;-76
2024/03/25 03:14:30;;;;;;;4.93;2.67;;;;;;;4.83;100.00;97388.75;5051492;28;20224;-76
2024/03/25 03:16:57;;;;;;;3.83;2.20;;;;;;;4.83;100.00;97387.94;5051583;28;20231;-76
2024/03/25 03:19:25;;;;;;;3.10;2.33;;;;;;;4.73;100.00;97392.88;5051562;28;20212;-78
2024/03/25 03:21:51;;;;;;;2.90;2.23;;;;;;;4.71;100.00;97389.47;5051178;28;20230;-76
2024/03/25 03:24:18;;;;;;;4.10;2.53;;;;;;;4.74;100.00;97383.22;5051709;28;20582;-76
2024/03/25 03:26:44;;;;;;;6.73;2.73;;;;;;;4.75;100.00;97377.03;5051332;28;20216;-76
2024/03/25 03:29:10;;;;;;;4.53;2.33;;;;;;;4.76;100.00;97371.72;5051230;28;20211;-76
2024/03/25 03:31:37;;;;;;;3.67;2.90;;;;;;;4.83;100.00;97378.28;5051308;28;20232;-76
2024/03/25 03:34:02;;;;;;;4.87;2.40;;;;;;;4.87;100.00;97369.34;5051665;28;20217;-77
2024/03/25 03:36:30;;;;;;;2.60;2.20;;;;;;;4.94;100.00;97368.03;5051294;28;20722;-77
2024/03/25 03:38:56;;;;;;;5.00;2.63;;;;;;;4.93;100.00;97358.50;5051488;28;20518;-76
2024/03/25 03:41:22;;;;;;;6.23;2.67;;;;;;;4.94;100.00;97357.56;5050856;28;20235;-76
2024/03/25 03:43:48;;;;;;;7.63;3.07;;;;;;;4.98;100.00;97353.00;5051245;28;20213;-76
2024/03/25 03:46:15;;;;;;;5.10;2.90;;;;;;;4.99;100.00;97358.16;5051340;28;20216;-76
2024/03/25 03:48:40;;;;;;;3.23;2.53;;;;;;;4.94;100.00;97360.19;5051279;28;20208;-76
2024/03/25 03:51:07;;;;;;;4.43;2.60;;;;;;;4.91;100.00;97360.38;5050929;28;20315;-76
2024/03/25 03:53:35;;;;;;;3.77;2.63;;;;;;;4.91;100.00;97364.75;5051174;28;20239;-76
2024/03/25 03:56:04;;;;;;;4.37;2.80;;;;;;;4.93;100.00;97362.88;5052594;28;20694;-79
2024/03/25 03:58:29;;;;;;;7.63;2.90;;;;;;;4.94;100.00;97375.91;5055095;28;20210;-77
2024/03/25 04:00:56;;;;;;;5.43;2.30;;;;;;;5.02;100.00;97372.81;5054638;28;20234;-76
2024/03/25 04:03:22;;;;;;;3.50;2.80;;;;;;;4.98;100.00;97371.31;5055158;28;20209;-76
2024/03/25 04:05:48;;;;;;;5.17;2.80;;;;;;;4.98;100.00;97380.03;5054887;28;20323;-76
2024/03/25 04:08:14;;;;;;;5.87;3.20;;;;;;;4.96;100.00;97378.44;5054942;28;20681;-77
2024/03/25 04:10:42;;;;;;;3.90;2.80;;;;;;;4.99;100.00;97379.09;5054479;28;20228;-76
2024/03/25 04:13:07;;;;;;;3.93;2.70;;;;;;;4.97;100.00;97383.59;5054594;28;20216;-76
2024/03/25 04:15:35;;;;;;;7.53;3.90;;;;;;;5.03;100.00;97375.38;5054798;28;20215;-76
2024/03/25 04:18:00;;;;;;;4.97;2.90;;;;;;;5.06;100.00;97374.34;5054794;28;20233;-78
2024/03/25 04:20:28;;;;;;;4.30;2.60;;;;;;;5.06;100.00;97385.66;5054551;28;20238;-76
2024/03/25 04:22:54;;;;;;;5.60;3.10;;;;;;;5.06;100.00;97379.59;5054249;28;20235;-76
2024/03/25 04:25:20;;;;;;;4.57;2.70;;;;;;;5.07;100.00;97378.66;5054379;28;20207;-78
2024/03/25 04:27:48;;;;;;;4.77;3.23;;;;;;;5.06;100.00;97379.59;5054705;28;20385;-78
2024/03/25 04:30:14;;;;;;;5.27;2.70;;;;;;;5.06;100.00;97375.16;5054326;28;20212;-76
2024/03/25 04:32:40;;;;;;;6.23;3.10;;;;;;;5.03;100.00;97366.66;5054217;28;20684;-76
2024/03/25 04:35:08;;;;;;;6.27;3.10;;;;;;;4.94;100.00;97370.66;5054551;28;20826;-79
